sensor_id;sensor_type;location;lat;lon;timestamp;P1;P2;P0
72307;PMS5003;60257;42.638;23.376;2023-04-01T00:00:17;20.67;19.67;13.00
72307;PMS5003;60257;42.638;23.376;2023-04-01T00:02:43;24.33;23.33;15.33
72307;PMS5003;60257;42.638;23.376;2023-04-01T00:05:09;27.67;25.67;18.00
72307;PMS5003;60257;42.638;23.376;2023-04-01T00:07:35;48.00;40.00;25.67
72307;PMS5003;60257;42.638;23.376;2023-04-01T00:10:02;39.00;34.33;24.00
72307;PMS5003;60257;42.638;23.376;2023-04-01T00:12:29;37.67;33.33;23.00
72307;PMS5003;60257;42.638;23.376;2023-04-01T00:14:55;30.00;30.00;21.67
72307;PMS5003;60257;42.638;23.376;2023-04-01T00:17:20;38.67;34.00;22.00
72307;PMS5003;60257;42.638;23.376;2023-04-01T00:19:46;35.67;34.67;23.00
72307;PMS5003;60257;42.638;23.376;2023-04-01T00:22:12;37.33;32.67;23.00
72307;PMS5003;60257;42.638;23.376;2023-04-01T00:24:37;28.33;25.33;19.33
72307;PMS5003;60257;42.638;23.376;2023-04-01T00:27:03;33.67;30.33;19.00
72307;PMS5003;60257;42.638;23.376;2023-04-01T00:29:29;34.67;32.67;20.33
72307;PMS5003;60257;42.638;23.376;2023-04-01T00:31:58;37.00;34.67;21.33
72307;PMS5003;60257;42.638;23.376;2023-04-01T00:34:24;40.33;37.00;24.00
72307;PMS5003;60257;42.638;23.376;2023-04-01T00:36:50;35.00;34.00;21.33
72307;PMS5003;60257;42.638;23.376;2023-04-01T00:39:17;32.00;30.33;20.00
72307;PMS5003;60257;42.638;23.376;2023-04-01T00:41:43;32.00;29.00;19.67
72307;PMS5003;60257;42.638;23.376;2023-04-01T00:44:19;27.33;25.67;15.33
72307;PMS5003;60257;42.638;23.376;2023-04-01T00:46:47;30.67;29.67;21.00
72307;PMS5003;60257;42.638;23.376;2023-04-01T00:49:13;34.67;28.33;20.00
72307;PMS5003;60257;42.638;23.376;2023-04-01T00:51:41;26.67;25.33;19.67
72307;PMS5003;60257;42.638;23.376;2023-04-01T00:54:11;28.67;26.33;15.67
72307;PMS5003;60257;42.638;23.376;2023-04-01T00:56:42;26.33;23.67;16.00
72307;PMS5003;60257;42.638;23.376;2023-04-01T00:59:14;22.33;20.33;15.33
72307;PMS5003;60257;42.638;23.376;2023-04-01T01:01:46;26.67;24.33;16.00
72307;PMS5003;60257;42.638;23.376;2023-04-01T01:04:28;31.00;24.67;17.00
72307;PMS5003;60257;42.638;23.376;2023-04-01T01:12:45;31.00;28.67;17.67
72307;PMS5003;60257;42.638;23.376;2023-04-01T01:37:39;18.33;18.33;14.33
72307;PMS5003;60257;42.638;23.376;2023-04-01T01:40:09;17.33;16.00;11.33
72307;PMS5003;60257;42.638;23.376;2023-04-01T01:42:37;20.33;18.00;10.00
72307;PMS5003;60257;42.638;23.376;2023-04-01T01:45:07;13.67;12.33;9.00
72307;PMS5003;60257;42.638;23.376;2023-04-01T01:47:35;21.00;18.00;13.00
72307;PMS5003;60257;42.638;23.376;2023-04-01T01:50:02;19.00;19.00;10.00
72307;PMS5003;60257;42.638;23.376;2023-04-01T01:52:30;16.00;16.00;10.00
72307;PMS5003;60257;42.638;23.376;2023-04-01T01:54:57;18.00;16.00;10.00
72307;PMS5003;60257;42.638;23.376;2023-04-01T01:57:24;20.33;18.67;12.33
72307;PMS5003;60257;42.638;23.376;2023-04-01T01:59:54;14.67;14.00;8.33
72307;PMS5003;60257;42.638;23.376;2023-04-01T02:02:23;18.00;15.33;8.00
72307;PMS5003;60257;42.638;23.376;2023-04-01T02:04:52;10.33;10.33;4.00
72307;PMS5003;60257;42.638;23.376;2023-04-01T02:07:23;15.67;13.33;9.00
72307;PMS5003;60257;42.638;23.376;2023-04-01T02:09:53;18.00;16.33;11.00
72307;PMS5003;60257;42.638;23.376;2023-04-01T02:12:19;16.00;12.00;10.00
72307;PMS5003;60257;42.638;23.376;2023-04-01T02:14:52;16.67;14.33;9.33
72307;PMS5003;60257;42.638;23.376;2023-04-01T02:17:21;17.67;17.67;11.67
72307;PMS5003;60257;42.638;23.376;2023-04-01T02:19:53;17.33;15.33;10.00
72307;PMS5003;60257;42.638;23.376;2023-04-01T02:22:25;13.00;13.00;7.67
72307;PMS5003;60257;42.638;23.376;2023-04-01T02:24:54;14.67;12.00;8.67
72307;PMS5003;60257;42.638;23.376;2023-04-01T02:27:24;14.00;12.00;8.00
72307;PMS5003;60257;42.638;23.376;2023-04-01T02:29:51;13.67;13.67;9.00
72307;PMS5003;60257;42.638;23.376;2023-04-01T02:32:17;11.00;11.00;8.00
72307;PMS5003;60257;42.638;23.376;2023-04-01T02:34:45;18.00;17.00;9.67
72307;PMS5003;60257;42.638;23.376;2023-04-01T02:37:13;14.00;14.00;9.00
72307;PMS5003;60257;42.638;23.376;2023-04-01T02:39:39;15.00;14.00;8.33
72307;PMS5003;60257;42.638;23.376;2023-04-01T02:42:05;14.33;14.33;8.67
72307;PMS5003;60257;42.638;23.376;2023-04-01T02:44:31;17.00;13.67;9.00
72307;PMS5003;60257;42.638;23.376;2023-04-01T02:46:56;17.00;16.00;9.67
72307;PMS5003;60257;42.638;23.376;2023-04-01T02:49:22;13.00;13.00;9.00
72307;PMS5003;60257;42.638;23.376;2023-04-01T02:51:47;13.00;13.00;9.00
72307;PMS5003;60257;42.638;23.376;2023-04-01T02:54:12;18.67;13.33;8.33
72307;PMS5003;60257;42.638;23.376;2023-04-01T02:56:38;18.00;18.00;12.00
72307;PMS5003;60257;42.638;23.376;2023-04-01T02:59:04;12.67;12.67;9.00
72307;PMS5003;60257;42.638;23.376;2023-04-01T03:01:29;17.00;15.00;10.00
72307;PMS5003;60257;42.638;23.376;2023-04-01T03:03:55;9.67;9.00;8.67
72307;PMS5003;60257;42.638;23.376;2023-04-01T03:06:20;17.00;16.00;8.00
72307;PMS5003;60257;42.638;23.376;2023-04-01T03:08:45;14.00;14.00;9.00
72307;PMS5003;60257;42.638;23.376;2023-04-01T03:11:11;17.67;17.00;9.33
72307;PMS5003;60257;42.638;23.376;2023-04-01T03:13:37;15.33;13.33;8.00
72307;PMS5003;60257;42.638;23.376;2023-04-01T03:16:03;15.33;13.67;9.00
72307;PMS5003;60257;42.638;23.376;2023-04-01T03:18:28;20.33;20.33;13.00
72307;PMS5003;60257;42.638;23.376;2023-04-01T03:20:54;21.00;18.00;13.67
72307;PMS5003;60257;42.638;23.376;2023-04-01T03:23:20;21.33;20.33;14.00
72307;PMS5003;60257;42.638;23.376;2023-04-01T03:25:46;15.33;15.33;10.67
72307;PMS5003;60257;42.638;23.376;2023-04-01T03:28:13;10.33;10.33;9.00
72307;PMS5003;60257;42.638;23.376;2023-04-01T03:30:38;17.33;15.33;10.00
72307;PMS5003;60257;42.638;23.376;2023-04-01T03:33:04;17.00;13.00;9.00
72307;PMS5003;60257;42.638;23.376;2023-04-01T03:35:30;17.67;17.33;8.67
72307;PMS5003;60257;42.638;23.376;2023-04-01T03:37:55;19.33;18.33;11.00
72307;PMS5003;60257;42.638;23.376;2023-04-01T03:40:21;13.00;13.00;8.00
72307;PMS5003;60257;42.638;23.376;2023-04-01T03:42:47;20.33;18.67;11.00
72307;PMS5003;60257;42.638;23.376;2023-04-01T03:45:12;13.00;13.00;9.67
72307;PMS5003;60257;42.638;23.376;2023-04-01T03:47:38;20.00;18.67;12.00
72307;PMS5003;60257;42.638;23.376;2023-04-01T03:50:04;18.00;17.67;11.00
72307;PMS5003;60257;42.638;23.376;2023-04-01T03:52:31;19.00;16.00;10.00
72307;PMS5003;60257;42.638;23.376;2023-04-01T03:54:56;24.33;21.00;14.00
72307;PMS5003;60257;42.638;23.376;2023-04-01T03:57:22;19.67;18.67;12.00
72307;PMS5003;60257;42.638;23.376;2023-04-01T03:59:48;23.33;20.67;12.67
72307;PMS5003;60257;42.638;23.376;2023-04-01T04:02:13;23.33;22.67;14.33
72307;PMS5003;60257;42.638;23.376;2023-04-01T04:04:39;28.00;24.33;14.00
72307;PMS5003;60257;42.638;23.376;2023-04-01T04:07:04;27.67;25.00;18.00
72307;PMS5003;60257;42.638;23.376;2023-04-01T04:09:30;30.00;26.00;16.00
72307;PMS5003;60257;42.638;23.376;2023-04-01T04:11:56;24.00;24.00;14.67
72307;PMS5003;60257;42.638;23.376;2023-04-01T04:14:22;23.67;21.33;15.67
72307;PMS5003;60257;42.638;23.376;2023-04-01T04:16:48;29.00;24.33;18.00
72307;PMS5003;60257;42.638;23.376;2023-04-01T04:19:13;21.67;19.00;16.00
72307;PMS5003;60257;42.638;23.376;2023-04-01T04:21:39;25.67;22.33;15.00
72307;PMS5003;60257;42.638;23.376;2023-04-01T04:24:05;32.00;26.00;16.00
72307;PMS5003;60257;42.638;23.376;2023-04-01T04:26:31;21.00;19.67;13.33
72307;PMS5003;60257;42.638;23.376;2023-04-01T04:28:57;31.00;27.67;19.00
72307;PMS5003;60257;42.638;23.376;2023-04-01T04:31:23;28.33;27.00;19.00
72307;PMS5003;60257;42.638;23.376;2023-04-01T04:33:49;27.67;24.33;16.33
72307;PMS5003;60257;42.638;23.376;2023-04-01T04:36:16;23.33;20.00;13.00
72307;PMS5003;60257;42.638;23.376;2023-04-01T04:38:42;16.00;12.00;10.00
72307;PMS5003;60257;42.638;23.376;2023-04-01T04:41:08;17.00;14.67;10.33
72307;PMS5003;60257;42.638;23.376;2023-04-01T04:43:35;25.33;25.33;15.00
72307;PMS5003;60257;42.638;23.376;2023-04-01T04:46:04;22.67;21.67;14.33
72307;PMS5003;60257;42.638;23.376;2023-04-01T04:48:31;19.00;17.67;10.00
72307;PMS5003;60257;42.638;23.376;2023-04-01T04:50:56;18.00;16.33;11.00
72307;PMS5003;60257;42.638;23.376;2023-04-01T04:53:22;14.33;12.67;9.33
72307;PMS5003;60257;42.638;23.376;2023-04-01T04:55:48;13.00;13.00;9.00
72307;PMS5003;60257;42.638;23.376;2023-04-01T04:58:14;16.00;14.00;8.33
72307;PMS5003;60257;42.638;23.376;2023-04-01T05:00:40;16.00;16.00;10.00
72307;PMS5003;60257;42.638;23.376;2023-04-01T05:03:06;17.00;17.00;10.67
72307;PMS5003;60257;42.638;23.376;2023-04-01T05:05:32;13.00;13.00;9.67
72307;PMS5003;60257;42.638;23.376;2023-04-01T05:07:58;19.67;19.00;12.67
72307;PMS5003;60257;42.638;23.376;2023-04-01T05:10:23;16.00;15.00;10.00
72307;PMS5003;60257;42.638;23.376;2023-04-01T05:12:49;16.00;16.00;10.67
72307;PMS5003;60257;42.638;23.376;2023-04-01T05:15:15;19.33;17.33;10.00
72307;PMS5003;60257;42.638;23.376;2023-04-01T05:17:40;39.67;37.33;24.00
72307;PMS5003;60257;42.638;23.376;2023-04-01T05:20:06;37.33;32.67;19.00
72307;PMS5003;60257;42.638;23.376;2023-04-01T05:22:32;24.00;20.33;16.00
72307;PMS5003;60257;42.638;23.376;2023-04-01T05:24:58;23.33;20.33;13.00
72307;PMS5003;60257;42.638;23.376;2023-04-01T05:27:23;24.67;23.00;14.00
72307;PMS5003;60257;42.638;23.376;2023-04-01T05:29:49;28.00;26.67;17.67
72307;PMS5003;60257;42.638;23.376;2023-04-01T05:32:14;25.00;25.00;15.67
72307;PMS5003;60257;42.638;23.376;2023-04-01T05:34:40;19.00;18.67;12.00
72307;PMS5003;60257;42.638;23.376;2023-04-01T05:37:05;19.33;19.33;10.00
72307;PMS5003;60257;42.638;23.376;2023-04-01T05:39:36;25.00;21.67;13.33
72307;PMS5003;60257;42.638;23.376;2023-04-01T05:42:07;27.00;26.33;17.67
72307;PMS5003;60257;42.638;23.376;2023-04-01T05:44:33;75.75;59.00;38.25
72307;PMS5003;60257;42.638;23.376;2023-04-01T05:46:59;35.33;33.33;23.33
72307;PMS5003;60257;42.638;23.376;2023-04-01T05:49:25;34.00;29.33;21.00
72307;PMS5003;60257;42.638;23.376;2023-04-01T05:51:50;34.67;32.33;22.00
72307;PMS5003;60257;42.638;23.376;2023-04-01T05:54:16;24.00;22.33;14.33
72307;PMS5003;60257;42.638;23.376;2023-04-01T05:56:42;28.00;24.33;18.33
72307;PMS5003;60257;42.638;23.376;2023-04-01T05:59:09;23.33;21.33;13.67
72307;PMS5003;60257;42.638;23.376;2023-04-01T06:01:35;21.67;18.67;11.00
72307;PMS5003;60257;42.638;23.376;2023-04-01T06:04:01;18.33;16.67;9.33
72307;PMS5003;60257;42.638;23.376;2023-04-01T06:06:27;22.33;19.00;12.33
72307;PMS5003;60257;42.638;23.376;2023-04-01T06:08:56;17.67;17.67;12.00
72307;PMS5003;60257;42.638;23.376;2023-04-01T06:11:33;19.33;19.33;13.00
72307;PMS5003;60257;42.638;23.376;2023-04-01T06:20:12;15.67;15.67;9.00
72307;PMS5003;60257;42.638;23.376;2023-04-01T06:25:32;21.00;18.33;13.33
72307;PMS5003;60257;42.638;23.376;2023-04-01T06:31:07;25.33;23.67;14.67
72307;PMS5003;60257;42.638;23.376;2023-04-01T06:33:48;14.67;12.33;8.33
72307;PMS5003;60257;42.638;23.376;2023-04-01T06:44:44;20.67;18.33;12.33
72307;PMS5003;60257;42.638;23.376;2023-04-01T06:58:21;20.67;19.00;14.00
72307;PMS5003;60257;42.638;23.376;2023-04-01T07:00:54;19.67;19.67;14.00
72307;PMS5003;60257;42.638;23.376;2023-04-01T07:03:32;25.00;24.33;15.00
72307;PMS5003;60257;42.638;23.376;2023-04-01T07:06:05;31.33;28.00;18.33
72307;PMS5003;60257;42.638;23.376;2023-04-01T07:08:38;25.00;23.67;15.67
72307;PMS5003;60257;42.638;23.376;2023-04-01T07:11:11;22.67;21.00;18.33
72307;PMS5003;60257;42.638;23.376;2023-04-01T07:13:52;27.00;24.00;17.00
72307;PMS5003;60257;42.638;23.376;2023-04-01T07:16:40;22.00;20.67;14.33
72307;PMS5003;60257;42.638;23.376;2023-04-01T07:22:00;23.00;23.00;14.00
72307;PMS5003;60257;42.638;23.376;2023-04-01T07:24:33;17.67;17.00;13.00
72307;PMS5003;60257;42.638;23.376;2023-04-01T07:27:03;18.00;18.00;13.67
72307;PMS5003;60257;42.638;23.376;2023-04-01T07:29:34;21.67;21.00;16.00
72307;PMS5003;60257;42.638;23.376;2023-04-01T07:37:10;19.33;18.33;14.00
72307;PMS5003;60257;42.638;23.376;2023-04-01T07:40:09;25.67;24.33;16.00
72307;PMS5003;60257;42.638;23.376;2023-04-01T07:50:18;27.67;26.33;18.33
72307;PMS5003;60257;42.638;23.376;2023-04-01T07:55:50;28.67;27.33;16.67
72307;PMS5003;60257;42.638;23.376;2023-04-01T08:06:14;26.33;24.00;16.67
72307;PMS5003;60257;42.638;23.376;2023-04-01T08:11:41;25.33;20.67;16.00
72307;PMS5003;60257;42.638;23.376;2023-04-01T08:14:36;19.33;16.33;12.33
72307;PMS5003;60257;42.638;23.376;2023-04-01T08:23:13;21.00;20.00;14.00
72307;PMS5003;60257;42.638;23.376;2023-04-01T08:25:52;51.67;44.00;27.67
72307;PMS5003;60257;42.638;23.376;2023-04-01T08:28:29;24.00;21.00;13.67
72307;PMS5003;60257;42.638;23.376;2023-04-01T08:31:19;17.33;17.33;11.00
72307;PMS5003;60257;42.638;23.376;2023-04-01T08:34:18;22.00;19.00;12.00
72307;PMS5003;60257;42.638;23.376;2023-04-01T08:39:47;23.00;23.00;15.00
72307;PMS5003;60257;42.638;23.376;2023-04-01T09:21:45;15.67;15.00;12.00
72307;PMS5003;60257;42.638;23.376;2023-04-01T09:27:27;16.00;15.00;9.00
72307;PMS5003;60257;42.638;23.376;2023-04-01T09:35:46;16.75;16.25;11.50
72307;PMS5003;60257;42.638;23.376;2023-04-01T09:43:27;14.75;13.75;8.25
72307;PMS5003;60257;42.638;23.376;2023-04-01T10:26:26;15.75;14.75;9.50
72307;PMS5003;60257;42.638;23.376;2023-04-01T11:23:13;11.50;10.00;7.00
72307;PMS5003;60257;42.638;23.376;2023-04-01T11:34:20;8.00;6.75;3.25
72307;PMS5003;60257;42.638;23.376;2023-04-01T11:39:57;7.50;6.00;4.25
72307;PMS5003;60257;42.638;23.376;2023-04-01T11:48:17;7.25;6.00;4.00
72307;PMS5003;60257;42.638;23.376;2023-04-01T11:51:04;13.50;13.00;9.00
72307;PMS5003;60257;42.638;23.376;2023-04-01T11:53:57;5.75;5.75;3.25
72307;PMS5003;60257;42.638;23.376;2023-04-01T11:59:18;9.50;7.75;5.00
72307;PMS5003;60257;42.638;23.376;2023-04-01T12:04:44;7.00;7.00;5.00
72307;PMS5003;60257;42.638;23.376;2023-04-01T12:18:50;10.00;10.00;6.00
72307;PMS5003;60257;42.638;23.376;2023-04-01T12:21:36;11.67;11.00;8.33
72307;PMS5003;60257;42.638;23.376;2023-04-01T12:24:06;10.67;10.67;8.33
72307;PMS5003;60257;42.638;23.376;2023-04-01T12:43:23;14.33;13.00;8.33
72307;PMS5003;60257;42.638;23.376;2023-04-01T13:12:36;10.67;10.67;8.67
72307;PMS5003;60257;42.638;23.376;2023-04-01T13:17:36;15.00;12.00;7.00
72307;PMS5003;60257;42.638;23.376;2023-04-01T13:22:45;19.67;17.00;12.00
72307;PMS5003;60257;42.638;23.376;2023-04-01T13:28:05;6.67;6.67;5.00
72307;PMS5003;60257;42.638;23.376;2023-04-01T13:42:28;4.00;4.00;2.50
72307;PMS5003;60257;42.638;23.376;2023-04-01T13:45:15;3.75;3.75;3.25
72307;PMS5003;60257;42.638;23.376;2023-04-01T13:50:44;4.00;4.00;3.00
72307;PMS5003;60257;42.638;23.376;2023-04-01T13:58:34;11.00;9.00;6.00
72307;PMS5003;60257;42.638;23.376;2023-04-01T14:01:19;8.25;8.00;5.25
72307;PMS5003;60257;42.638;23.376;2023-04-01T14:33:25;22.00;19.33;13.00
72307;PMS5003;60257;42.638;23.376;2023-04-01T14:47:11;14.00;12.67;7.00
72307;PMS5003;60257;42.638;23.376;2023-04-01T14:50:18;9.75;9.00;7.00
72307;PMS5003;60257;42.638;23.376;2023-04-01T14:53:11;15.00;14.67;8.00
72307;PMS5003;60257;42.638;23.376;2023-04-01T14:58:18;12.33;11.00;7.00
72307;PMS5003;60257;42.638;23.376;2023-04-01T15:00:48;16.67;13.33;10.33
72307;PMS5003;60257;42.638;23.376;2023-04-01T15:03:38;16.00;16.00;9.33
72307;PMS5003;60257;42.638;23.376;2023-04-01T15:15:24;13.00;12.67;9.00
72307;PMS5003;60257;42.638;23.376;2023-04-01T15:45:17;14.00;14.00;9.33
72307;PMS5003;60257;42.638;23.376;2023-04-01T15:48:18;14.67;12.33;7.67
72307;PMS5003;60257;42.638;23.376;2023-04-01T15:53:37;15.67;14.00;8.00
72307;PMS5003;60257;42.638;23.376;2023-04-01T16:04:14;4.00;4.00;1.67
72307;PMS5003;60257;42.638;23.376;2023-04-01T16:34:18;9.67;7.00;3.00
72307;PMS5003;60257;42.638;23.376;2023-04-01T16:36:30;9.67;9.67;4.00
72307;PMS5003;60257;42.638;23.376;2023-04-01T16:44:47;4.67;4.67;3.00
72307;PMS5003;60257;42.638;23.376;2023-04-01T16:47:27;6.33;6.33;3.00
72307;PMS5003;60257;42.638;23.376;2023-04-01T16:50:13;6.33;6.33;2.00
72307;PMS5003;60257;42.638;23.376;2023-04-01T16:55:50;6.00;4.00;3.33
72307;PMS5003;60257;42.638;23.376;2023-04-01T16:58:35;7.33;7.33;4.00
72307;PMS5003;60257;42.638;23.376;2023-04-01T17:03:38;4.00;4.00;2.00
72307;PMS5003;60257;42.638;23.376;2023-04-01T17:13:52;4.67;4.00;2.00
72307;PMS5003;60257;42.638;23.376;2023-04-01T17:16:43;5.33;4.67;2.00
72307;PMS5003;60257;42.638;23.376;2023-04-01T17:19:41;6.67;4.00;2.00
72307;PMS5003;60257;42.638;23.376;2023-04-01T17:30:32;3.00;3.00;2.00
72307;PMS5003;60257;42.638;23.376;2023-04-01T17:51:55;6.33;6.33;3.33
72307;PMS5003;60257;42.638;23.376;2023-04-01T18:02:47;8.00;6.67;3.00
72307;PMS5003;60257;42.638;23.376;2023-04-01T18:05:43;8.00;8.00;5.33
72307;PMS5003;60257;42.638;23.376;2023-04-01T18:19:54;13.33;10.33;7.00
72307;PMS5003;60257;42.638;23.376;2023-04-01T18:24:58;14.67;14.67;7.00
72307;PMS5003;60257;42.638;23.376;2023-04-01T18:27:40;14.00;12.00;8.00
72307;PMS5003;60257;42.638;23.376;2023-04-01T18:30:21;18.33;18.00;11.00
72307;PMS5003;60257;42.638;23.376;2023-04-01T18:35:46;13.67;11.67;7.33
72307;PMS5003;60257;42.638;23.376;2023-04-01T18:38:28;13.00;11.00;7.67
72307;PMS5003;60257;42.638;23.376;2023-04-01T18:41:10;3.00;2.00;1.00
72307;PMS5003;60257;42.638;23.376;2023-04-01T18:47:10;11.67;11.33;7.33
72307;PMS5003;60257;42.638;23.376;2023-04-01T18:49:55;8.33;7.00;4.33
72307;PMS5003;60257;42.638;23.376;2023-04-01T18:52:42;13.00;10.00;5.67
72307;PMS5003;60257;42.638;23.376;2023-04-01T18:55:23;13.33;13.33;9.00
72307;PMS5003;60257;42.638;23.376;2023-04-01T18:58:06;13.00;10.33;6.67
72307;PMS5003;60257;42.638;23.376;2023-04-01T19:00:54;14.00;13.00;8.00
72307;PMS5003;60257;42.638;23.376;2023-04-01T19:03:27;15.00;12.33;8.00
72307;PMS5003;60257;42.638;23.376;2023-04-01T19:06:17;14.00;13.67;9.67
72307;PMS5003;60257;42.638;23.376;2023-04-01T19:08:51;15.00;14.00;7.67
72307;PMS5003;60257;42.638;23.376;2023-04-01T19:19:56;7.67;7.67;6.00
72307;PMS5003;60257;42.638;23.376;2023-04-01T19:22:50;7.00;7.00;3.67
72307;PMS5003;60257;42.638;23.376;2023-04-01T19:25:53;10.33;8.00;6.00
72307;PMS5003;60257;42.638;23.376;2023-04-01T19:30:57;8.67;7.33;6.00
72307;PMS5003;60257;42.638;23.376;2023-04-01T19:42:11;7.67;7.00;6.00
72307;PMS5003;60257;42.638;23.376;2023-04-01T19:50:24;8.00;8.00;4.00
72307;PMS5003;60257;42.638;23.376;2023-04-01T19:53:02;7.00;7.00;3.67
72307;PMS5003;60257;42.638;23.376;2023-04-01T19:55:54;8.00;8.00;6.00
72307;PMS5003;60257;42.638;23.376;2023-04-01T19:58:35;6.00;6.00;4.00
72307;PMS5003;60257;42.638;23.376;2023-04-01T20:01:39;8.00;7.00;5.33
72307;PMS5003;60257;42.638;23.376;2023-04-01T20:04:26;7.33;7.33;4.67
72307;PMS5003;60257;42.638;23.376;2023-04-01T20:14:45;6.33;6.00;3.00
72307;PMS5003;60257;42.638;23.376;2023-04-01T20:22:34;7.00;7.00;4.00
72307;PMS5003;60257;42.638;23.376;2023-04-01T20:25:19;3.00;3.00;2.00
72307;PMS5003;60257;42.638;23.376;2023-04-01T20:36:34;5.00;5.00;2.00
72307;PMS5003;60257;42.638;23.376;2023-04-01T20:39:19;5.00;5.00;2.33
72307;PMS5003;60257;42.638;23.376;2023-04-01T20:44:20;4.67;4.00;3.00
72307;PMS5003;60257;42.638;23.376;2023-04-01T20:52:42;4.00;4.00;2.33
72307;PMS5003;60257;42.638;23.376;2023-04-01T20:55:26;6.00;6.00;3.00
72307;PMS5003;60257;42.638;23.376;2023-04-01T20:58:13;7.67;7.67;3.67
72307;PMS5003;60257;42.638;23.376;2023-04-01T21:00:52;5.33;5.33;2.67
72307;PMS5003;60257;42.638;23.376;2023-04-01T21:03:45;4.33;4.33;3.00
72307;PMS5003;60257;42.638;23.376;2023-04-01T21:25:30;4.67;4.00;2.33
72307;PMS5003;60257;42.638;23.376;2023-04-01T21:42:02;5.33;5.00;3.00
72307;PMS5003;60257;42.638;23.376;2023-04-01T21:53:26;4.00;4.00;3.00
72307;PMS5003;60257;42.638;23.376;2023-04-01T22:07:17;3.00;3.00;1.00
72307;PMS5003;60257;42.638;23.376;2023-04-01T22:23:58;5.33;5.33;2.00
72307;PMS5003;60257;42.638;23.376;2023-04-01T22:26:54;3.00;3.00;2.00
72307;PMS5003;60257;42.638;23.376;2023-04-01T22:32:50;3.00;3.00;2.00
72307;PMS5003;60257;42.638;23.376;2023-04-01T22:43:12;4.33;4.33;3.00
72307;PMS5003;60257;42.638;23.376;2023-04-01T22:48:45;2.67;2.67;1.00
72307;PMS5003;60257;42.638;23.376;2023-04-01T22:56:22;2.00;2.00;1.00
72307;PMS5003;60257;42.638;23.376;2023-04-01T22:58:55;2.67;2.67;1.00
72307;PMS5003;60257;42.638;23.376;2023-04-01T23:01:30;1.00;1.00;0.00
72307;PMS5003;60257;42.638;23.376;2023-04-01T23:04:03;2.00;2.00;1.00
72307;PMS5003;60257;42.638;23.376;2023-04-01T23:06:33;1.00;1.00;1.00
72307;PMS5003;60257;42.638;23.376;2023-04-01T23:35:48;3.00;2.00;1.00
72307;PMS5003;60257;42.638;23.376;2023-04-01T23:38:14;0.67;0.33;0.00
72307;PMS5003;60257;42.638;23.376;2023-04-01T23:40:40;0.67;0.67;0.00
72307;PMS5003;60257;42.638;23.376;2023-04-01T23:43:13;2.00;2.00;0.00
72307;PMS5003;60257;42.638;23.376;2023-04-01T23:45:46;1.00;1.00;0.67
72307;PMS5003;60257;42.638;23.376;2023-04-01T23:48:13;1.33;1.33;0.00
72307;PMS5003;60257;42.638;23.376;2023-04-01T23:50:41;1.67;1.33;0.00
72307;PMS5003;60257;42.638;23.376;2023-04-01T23:53:16;0.00;0.00;0.00
72307;PMS5003;60257;42.638;23.376;2023-04-01T23:55:45;0.00;0.00;0.00
